Time;durP1;ratioP1;P1;durP2;ratioP2;P2;SDS_P1;SDS_P2;PMS_P1;PMS_P2;Temp;Humidity;BMP_temperature;BMP_pressure;BME280_temperature;BME280_humidity;BME280_pressure;Samples;Min_cycle;Max_cycle;Signal;HPM_P1;HPM_P2
2022/04/25 00:02:24;;;;;;;;;57.25;43.75;28.00;99.90;;;;;;5056547;28;8754;-64
2022/04/25 00:04:51;;;;;;;;;58.50;45.25;28.10;99.90;;;;;;5056131;28;8786;-65
2022/04/25 00:07:18;;;;;;;;;54.75;43.50;28.00;99.90;;;;;;5056585;28;9440;-64
2022/04/25 00:09:45;;;;;;;;;58.50;45.75;28.10;99.90;;;;;;5056227;28;8813;-65
2022/04/25 00:12:12;;;;;;;;;52.75;41.75;28.10;99.90;;;;;;5021654;28;8755;-65
2022/04/25 00:14:38;;;;;;;;;54.25;43.75;28.10;99.90;;;;;;5056013;28;8791;-65
2022/04/25 00:17:05;;;;;;;;;54.00;43.00;28.20;99.90;;;;;;5033246;28;8871;-65
2022/04/25 00:19:32;;;;;;;;;54.75;43.50;28.30;99.90;;;;;;5035631;28;8869;-64
2022/04/25 00:21:59;;;;;;;;;49.50;41.75;28.30;99.90;;;;;;5031057;28;8802;-65
2022/04/25 00:24:25;;;;;;;;;53.75;42.50;28.40;99.90;;;;;;4999363;28;8751;-65
2022/04/25 00:26:52;;;;;;;;;51.00;41.25;28.40;99.90;;;;;;5016800;28;8811;-66
2022/04/25 00:29:18;;;;;;;;;55.25;44.75;28.40;99.90;;;;;;5016081;28;9155;-65
2022/04/25 00:31:45;;;;;;;;;51.00;41.50;28.40;99.90;;;;;;5016134;28;8796;-65
2022/04/25 00:34:12;;;;;;;;;54.00;44.00;28.50;99.90;;;;;;5016717;28;8767;-65
2022/04/25 00:36:38;;;;;;;;;48.75;41.00;28.60;99.90;;;;;;5016751;28;8763;-66
2022/04/25 00:39:05;;;;;;;;;55.25;43.25;28.50;99.90;;;;;;5035337;28;8786;-67
2022/04/25 00:41:32;;;;;;;;;53.00;41.50;28.50;99.90;;;;;;5032960;28;8838;-65
2022/04/25 00:44:01;;;;;;;;;52.50;42.75;28.80;99.90;;;;;;5033447;28;8798;-65
2022/04/25 00:46:28;;;;;;;;;54.75;43.50;29.30;99.90;;;;;;5034405;28;8785;-64
2022/04/25 00:48:55;;;;;;;;;47.75;39.75;29.40;99.90;;;;;;5038806;28;8798;-64
2022/04/25 00:51:21;;;;;;;;;46.75;37.75;29.40;99.90;;;;;;5037089;28;8784;-63
2022/04/25 00:53:48;;;;;;;;;45.50;35.75;29.60;99.90;;;;;;5041283;28;9380;-64
2022/04/25 00:56:16;;;;;;;;;40.75;34.25;29.30;99.90;;;;;;5048304;28;8768;-64
2022/04/25 00:58:46;;;;;;;;;49.00;40.25;29.10;99.90;;;;;;5028011;28;8756;-65
2022/04/25 01:01:13;;;;;;;;;28.00;19.75;29.90;99.90;;;;;;5037590;28;8771;-64
2022/04/25 01:03:40;;;;;;;;;44.25;37.00;29.70;99.90;;;;;;5037473;28;8767;-65
2022/04/25 01:06:07;;;;;;;;;45.00;37.50;29.60;99.90;;;;;;5035623;28;8863;-65
2022/04/25 01:08:37;;;;;;;;;47.25;37.00;29.60;99.90;;;;;;5019507;28;8905;-65
2022/04/25 01:11:04;;;;;;;;;55.50;41.00;29.60;99.90;;;;;;5017305;28;8794;-65
2022/04/25 01:13:31;;;;;;;;;47.25;36.50;29.90;99.90;;;;;;5033294;28;8948;-65
2022/04/25 01:15:58;;;;;;;;;51.25;40.75;29.90;99.90;;;;;;5017534;28;8931;-65
2022/04/25 01:18:24;;;;;;;;;50.50;40.50;29.70;99.90;;;;;;5018217;28;8858;-65
2022/04/25 01:20:53;;;;;;;;;51.00;41.25;29.60;99.90;;;;;;5018915;28;8794;-65
2022/04/25 01:28:52;;;;;;;;;44.75;37.25;29.90;99.90;;;;;;5037471;28;8886;-65
2022/04/25 01:31:19;;;;;;;;;45.25;38.25;30.20;99.90;;;;;;5038814;28;9532;-64
2022/04/25 01:33:46;;;;;;;;;44.25;35.75;30.40;99.90;;;;;;5036785;28;8752;-65
2022/04/25 01:36:13;;;;;;;;;49.00;39.50;30.60;99.90;;;;;;5037998;28;8756;-65
2022/04/25 01:38:39;;;;;;;;;51.25;40.75;30.50;99.90;;;;;;5040122;28;8881;-65
2022/04/25 01:41:07;;;;;;;;;47.25;40.00;30.90;99.90;;;;;;5051334;28;8779;-65
2022/04/25 01:43:39;;;;;;;;;48.00;37.25;30.30;99.90;;;;;;5037559;28;8733;-64
2022/04/25 01:46:06;;;;;;;;;49.25;40.00;30.00;99.90;;;;;;5036436;28;8777;-65
2022/04/25 01:48:33;;;;;;;;;52.25;39.25;29.70;99.90;;;;;;5036425;28;8873;-65
2022/04/25 01:51:00;;;;;;;;;54.50;43.00;29.90;99.90;;;;;;5036264;28;8744;-63
2022/04/25 01:53:26;;;;;;;;;39.75;33.50;30.60;99.90;;;;;;5018599;28;8749;-66
2022/04/25 01:55:53;;;;;;;;;42.00;36.00;30.70;99.90;;;;;;5052008;28;8776;-62
2022/04/25 01:58:19;;;;;;;;;48.00;38.50;30.80;99.90;;;;;;5037052;28;8882;-64
2022/04/25 02:00:46;;;;;;;;;48.75;41.00;30.50;99.90;;;;;;5053014;28;8761;-69
2022/04/25 02:03:13;;;;;;;;;48.50;39.00;30.30;99.90;;;;;;5037507;28;8998;-63
2022/04/25 02:05:42;;;;;;;;;49.75;41.25;30.70;99.90;;;;;;5052909;28;8753;-63
2022/04/25 02:08:09;;;;;;;;;42.00;32.75;31.20;99.90;;;;;;5006578;28;9530;-65
2022/04/25 02:10:36;;;;;;;;;47.50;38.25;31.10;99.90;;;;;;5015322;28;8758;-65
2022/04/25 02:13:03;;;;;;;;;45.00;38.50;31.10;99.90;;;;;;5016723;28;9466;-65
2022/04/25 02:15:29;;;;;;;;;48.25;40.75;30.90;99.90;;;;;;4999879;28;8779;-65
2022/04/25 02:17:56;;;;;;;;;48.50;38.25;31.40;99.90;;;;;;4999931;28;8809;-65
2022/04/25 02:20:23;;;;;;;;;46.75;36.75;31.70;99.90;;;;;;4996630;28;8793;-66
2022/04/25 02:22:49;;;;;;;;;46.25;37.75;31.30;99.90;;;;;;5016616;28;8881;-65
2022/04/25 02:25:16;;;;;;;;;45.00;35.50;31.40;99.90;;;;;;5056577;28;8782;-65
2022/04/25 02:27:43;;;;;;;;;26.75;21.25;31.10;99.90;;;;;;5055630;28;8774;-66
2022/04/25 02:30:10;;;;;;;;;48.75;40.25;31.40;99.90;;;;;;5055964;28;8749;-64
2022/04/25 02:32:37;;;;;;;;;47.00;39.00;31.50;99.90;;;;;;5056535;28;8907;-70
2022/04/25 02:35:04;;;;;;;;;42.75;34.75;31.00;99.90;;;;;;5039463;28;8772;-65
2022/04/25 02:37:31;;;;;;;;;45.50;37.25;31.50;99.90;;;;;;5045523;28;8819;-65
2022/04/25 02:39:57;;;;;;;;;44.75;36.00;31.90;99.90;;;;;;5032510;28;8777;-65
2022/04/25 02:42:24;;;;;;;;;47.25;38.00;31.90;99.90;;;;;;5016450;28;8790;-65
2022/04/25 02:44:51;;;;;;;;;50.00;38.50;31.70;99.90;;;;;;5016937;28;8810;-66
2022/04/25 02:47:18;;;;;;;;;44.50;33.50;31.60;99.90;;;;;;5016055;28;9295;-65
2022/04/25 02:49:44;;;;;;;;;44.00;32.75;31.80;99.90;;;;;;5016647;28;8901;-66
2022/04/25 02:52:11;;;;;;;;;48.25;39.00;32.30;99.90;;;;;;5008380;28;8840;-65
2022/04/25 02:54:38;;;;;;;;;49.50;39.50;32.10;99.90;;;;;;4997111;28;10327;-68
2022/04/25 02:57:05;;;;;;;;;45.75;38.75;32.10;99.90;;;;;;4997804;28;8785;-65
2022/04/25 02:59:31;;;;;;;;;37.75;32.75;32.10;99.90;;;;;;4979541;28;8772;-71
2022/04/25 03:01:58;;;;;;;;;49.00;38.50;32.30;99.90;;;;;;4996837;28;8761;-69
2022/04/25 03:04:25;;;;;;;;;38.00;33.25;32.20;99.90;;;;;;4996116;28;8753;-62
2022/04/25 03:06:53;;;;;;;;;47.00;39.00;32.10;99.90;;;;;;5000038;28;8822;-65
2022/04/25 03:09:21;;;;;;;;;48.00;39.50;32.40;99.90;;;;;;5046923;28;8742;-65
2022/04/25 03:11:50;;;;;;;;;42.25;34.25;32.50;99.90;;;;;;5055653;28;8784;-69
2022/04/25 03:14:16;;;;;;;;;45.25;35.75;32.00;99.90;;;;;;5055288;28;8822;-67
2022/04/25 03:16:43;;;;;;;;;50.25;41.00;32.30;99.90;;;;;;5056243;28;9435;-68
2022/04/25 03:19:10;;;;;;;;;42.25;33.50;32.30;99.90;;;;;;5057677;28;8738;-77
2022/04/25 03:21:36;;;;;;;;;49.75;39.00;32.80;99.90;;;;;;5072811;28;8760;-65
2022/04/25 03:24:03;;;;;;;;;43.00;36.25;32.70;99.90;;;;;;5024588;28;8745;-64
2022/04/25 03:26:30;;;;;;;;;33.25;30.75;33.00;99.90;;;;;;5035792;28;9423;-64
2022/04/25 03:28:57;;;;;;;;;51.25;37.75;32.30;99.90;;;;;;5034962;28;8898;-64
2022/04/25 03:31:23;;;;;;;;;47.00;37.25;32.80;99.90;;;;;;5034665;28;8767;-64
2022/04/25 03:33:50;;;;;;;;;49.25;39.00;32.90;99.90;;;;;;5054612;28;8746;-67
2022/04/25 03:36:17;;;;;;;;;41.50;33.75;33.00;99.90;;;;;;5037567;28;8768;-64
2022/04/25 03:38:43;;;;;;;;;50.25;39.75;32.90;99.90;;;;;;5001239;28;8743;-66
2022/04/25 03:41:10;;;;;;;;;51.00;40.00;31.90;99.90;;;;;;5016517;28;8955;-64
2022/04/25 03:43:37;;;;;;;;;48.25;37.75;32.20;99.90;;;;;;4998630;28;8812;-69
2022/04/25 03:46:04;;;;;;;;;46.25;38.00;32.60;99.90;;;;;;5017260;28;8735;-67
2022/04/25 03:48:31;;;;;;;;;45.25;35.50;33.00;99.90;;;;;;5016359;28;8771;-70
2022/04/25 03:50:58;;;;;;;;;47.25;40.00;33.20;99.90;;;;;;4998723;28;8762;-68
2022/04/25 03:53:24;;;;;;;;;50.00;40.00;33.20;99.90;;;;;;5033046;28;9218;-69
2022/04/25 03:58:36;;;;;;;;;47.50;37.75;33.00;99.90;;;;;;5035987;28;8729;-71
2022/04/25 04:01:03;;;;;;;;;47.25;37.50;33.60;99.90;;;;;;5035922;28;8851;-69
2022/04/25 04:03:32;;;;;;;;;43.25;35.00;32.90;99.90;;;;;;5034907;28;8736;-64
2022/04/25 04:05:58;;;;;;;;;46.75;36.00;32.90;99.90;;;;;;5036422;28;8830;-63
2022/04/25 04:08:25;;;;;;;;;44.00;36.00;33.30;99.90;;;;;;5040870;28;8723;-64
2022/04/25 04:10:52;;;;;;;;;47.50;38.25;33.80;99.90;;;;;;5035051;28;8773;-66
2022/04/25 04:13:19;;;;;;;;;43.75;33.50;33.60;99.90;;;;;;5036478;28;8744;-65
2022/04/25 04:15:45;;;;;;;;;44.50;38.00;33.80;99.90;;;;;;5036138;28;8728;-66
2022/04/25 04:18:12;;;;;;;;;49.00;37.25;33.20;99.90;;;;;;5036226;28;8740;-65
2022/04/25 04:20:39;;;;;;;;;48.25;40.50;33.90;99.90;;;;;;5034169;28;8796;-66
2022/04/25 04:23:06;;;;;;;;;52.00;39.75;33.80;99.90;;;;;;5038290;28;8772;-65
2022/04/25 04:25:33;;;;;;;;;47.50;38.00;33.70;99.90;;;;;;5038750;28;8834;-63
2022/04/25 04:28:00;;;;;;;;;46.25;37.00;33.40;99.90;;;;;;5053961;28;8818;-64
2022/04/25 04:30:26;;;;;;;;;45.25;37.50;33.80;99.90;;;;;;5044687;28;8872;-64
2022/04/25 04:32:54;;;;;;;;;36.75;33.00;33.80;99.90;;;;;;5039704;28;8780;-66
2022/04/25 04:38:06;;;;;;;;;43.25;36.00;34.10;99.90;;;;;;5039879;28;8777;-67
2022/04/25 04:40:33;;;;;;;;;44.25;36.50;33.80;99.90;;;;;;5038826;28;8761;-67
2022/04/25 04:43:00;;;;;;;;;46.50;40.50;34.20;99.90;;;;;;5041830;28;8764;-68
2022/04/25 04:45:27;;;;;;;;;41.00;34.25;34.30;99.70;;;;;;5039117;28;8752;-67
2022/04/25 04:47:54;;;;;;;;;48.00;36.75;34.10;99.50;;;;;;5038711;28;8792;-67
2022/04/25 04:50:21;;;;;;;;;48.50;38.25;33.60;99.90;;;;;;5040053;28;8772;-66
2022/04/25 04:52:49;;;;;;;;;49.50;38.50;33.60;99.90;;;;;;5059314;28;8751;-67
2022/04/25 04:55:15;;;;;;;;;40.00;31.75;33.40;99.90;;;;;;5061104;28;8754;-67
2022/04/25 04:57:42;;;;;;;;;41.75;32.50;33.60;99.90;;;;;;5059408;28;8815;-67
2022/04/25 05:00:10;;;;;;;;;51.25;41.00;34.10;99.90;;;;;;5058805;28;8794;-66
2022/04/25 05:02:37;;;;;;;;;45.50;37.50;33.60;99.90;;;;;;5030149;28;8942;-66
2022/04/25 05:05:04;;;;;;;;;49.50;39.50;33.80;99.90;;;;;;5038729;28;8814;-66
2022/04/25 05:07:31;;;;;;;;;47.00;37.00;34.20;99.90;;;;;;5038567;28;8824;-67
2022/04/25 05:09:57;;;;;;;;;47.75;37.00;33.70;99.90;;;;;;5042316;28;8757;-67
2022/04/25 05:12:26;;;;;;;;;39.50;33.50;34.20;99.90;;;;;;5042503;28;8756;-67
2022/04/25 05:14:54;;;;;;;;;49.50;40.00;34.20;99.60;;;;;;5033422;28;8771;-67
2022/04/25 05:17:21;;;;;;;;;45.50;34.25;34.00;99.70;;;;;;5056847;28;8758;-67
2022/04/25 05:19:48;;;;;;;;;46.50;37.25;34.00;99.90;;;;;;5036840;28;8752;-68
2022/04/25 05:22:15;;;;;;;;;45.25;36.00;34.30;99.40;;;;;;5037611;28;8761;-67
2022/04/25 05:24:41;;;;;;;;;47.00;38.00;34.60;99.00;;;;;;5018899;28;8737;-67
2022/04/25 05:27:08;;;;;;;;;41.00;34.25;34.80;99.10;;;;;;5021020;28;8780;-67
2022/04/25 05:29:35;;;;;;;;;39.75;33.00;35.00;98.20;;;;;;5038890;28;8784;-66
2022/04/25 05:32:02;;;;;;;;;45.00;36.00;34.90;98.10;;;;;;5036837;28;9484;-66
2022/04/25 05:34:29;;;;;;;;;47.50;39.00;34.80;97.50;;;;;;5037263;28;8950;-65
2022/04/25 05:36:56;;;;;;;;;52.25;40.25;34.40;98.90;;;;;;5037700;28;8799;-66
2022/04/25 05:39:22;;;;;;;;;47.75;39.25;34.80;98.30;;;;;;5037032;28;8760;-66
2022/04/25 05:41:49;;;;;;;;;41.50;34.75;34.80;98.30;;;;;;5037146;28;8756;-67
2022/04/25 05:44:15;;;;;;;;;45.75;38.00;34.40;98.50;;;;;;5036071;28;8745;-67
2022/04/25 05:46:42;;;;;;;;;44.50;36.25;34.60;98.30;;;;;;5036907;28;8764;-66
2022/04/25 05:51:59;;;;;;;;;43.25;36.00;35.30;97.30;;;;;;5038487;28;8756;-67
2022/04/25 05:54:34;;;;;;;;;43.75;35.75;34.80;97.40;;;;;;5037079;28;9397;-67
2022/04/25 05:57:01;;;;;;;;;43.50;34.75;35.20;97.40;;;;;;5035583;28;8764;-67
2022/04/25 05:59:29;;;;;;;;;37.75;34.00;35.60;96.80;;;;;;5037854;28;8768;-67
2022/04/25 06:01:56;;;;;;;;;45.75;38.00;35.40;97.40;;;;;;5038217;28;8802;-67
2022/04/25 06:04:23;;;;;;;;;43.25;36.00;35.20;97.20;;;;;;5037448;28;8737;-66
2022/04/25 06:06:49;;;;;;;;;50.25;38.75;35.40;97.00;;;;;;5035237;28;8785;-66
2022/04/25 06:09:17;;;;;;;;;43.50;36.00;35.50;96.30;;;;;;5036425;28;9133;-68
2022/04/25 06:11:44;;;;;;;;;42.75;34.25;35.60;96.30;;;;;;5035674;28;8752;-66
2022/04/25 06:14:11;;;;;;;;;46.00;36.50;36.10;95.80;;;;;;5037325;28;8811;-66
2022/04/25 06:16:37;;;;;;;;;45.00;37.25;35.70;95.40;;;;;;5037125;28;8756;-66
2022/04/25 06:19:04;;;;;;;;;47.75;38.00;35.40;96.80;;;;;;5038671;28;8767;-65
2022/04/25 06:21:31;;;;;;;;;32.75;30.00;35.60;96.50;;;;;;5056593;28;8747;-65
2022/04/25 06:24:00;;;;;;;;;39.75;35.25;36.00;96.30;;;;;;5057580;28;8778;-66
2022/04/25 06:26:28;;;;;;;;;48.50;39.25;36.40;94.50;;;;;;5039775;28;8830;-66
2022/04/25 06:28:55;;;;;;;;;49.00;38.25;36.00;94.50;;;;;;5038143;28;8751;-66
2022/04/25 06:31:23;;;;;;;;;36.00;33.25;36.10;93.90;;;;;;5039613;28;8727;-65
2022/04/25 06:33:49;;;;;;;;;45.67;36.33;35.10;95.80;;;;;;5056798;28;8765;-66
2022/04/25 06:36:16;;;;;;;;;52.75;41.00;35.80;96.00;;;;;;5057239;28;8829;-67
2022/04/25 06:38:43;;;;;;;;;48.00;35.25;36.20;94.30;;;;;;5040108;28;8747;-71
2022/04/25 06:41:10;;;;;;;;;48.50;38.00;36.00;94.30;;;;;;5016036;28;8773;-72
2022/04/25 06:43:37;;;;;;;;;41.75;34.50;36.10;93.50;;;;;;5021759;28;8764;-67
2022/04/25 06:46:05;;;;;;;;;48.50;38.00;35.70;94.30;;;;;;5037854;28;8752;-68
2022/04/25 06:48:32;;;;;;;;;45.00;36.25;35.70;94.30;;;;;;5037282;28;8765;-67
2022/04/25 06:50:58;;;;;;;;;44.50;34.75;36.20;92.20;;;;;;5037381;28;8717;-68
2022/04/25 06:53:26;;;;;;;;;45.50;38.75;35.70;93.30;;;;;;5055251;28;8862;-67
2022/04/25 06:55:53;;;;;;;;;45.75;37.25;35.30;93.60;;;;;;5039378;28;8942;-67
2022/04/25 06:58:20;;;;;;;;;48.50;39.25;35.00;93.90;;;;;;5039393;28;8785;-63
2022/04/25 07:00:48;;;;;;;;;47.75;38.25;35.00;93.60;;;;;;5038067;28;9571;-64
2022/04/25 07:03:15;;;;;;;;;51.50;40.75;35.00;93.50;;;;;;5056653;28;8774;-69
2022/04/25 07:05:42;;;;;;;;;49.00;39.25;34.90;93.90;;;;;;5039541;28;8869;-64
2022/04/25 07:08:09;;;;;;;;;45.50;36.75;34.80;95.10;;;;;;5055408;28;8759;-66
2022/04/25 07:10:36;;;;;;;;;47.50;38.25;34.70;93.60;;;;;;5056021;28;8777;-66
2022/04/25 07:13:02;;;;;;;;;45.00;36.50;34.80;93.00;;;;;;5057809;28;8769;-67
2022/04/25 07:15:29;;;;;;;;;50.50;39.00;34.70;92.50;;;;;;5056766;28;8763;-67
2022/04/25 07:17:56;;;;;;;;;45.50;37.75;34.70;92.30;;;;;;5056589;28;8763;-66
2022/04/25 07:20:24;;;;;;;;;45.75;36.50;34.90;93.10;;;;;;5056624;28;8793;-65
2022/04/25 07:31:05;;;;;;;;;44.00;37.50;34.70;94.60;;;;;;5077025;28;8729;-60
2022/04/25 07:33:33;;;;;;;;;43.25;35.25;35.50;93.40;;;;;;5058516;28;8788;-61
2022/04/25 07:36:00;;;;;;;;;45.75;37.00;35.90;93.30;;;;;;5058605;28;9528;-63
2022/04/25 07:38:27;;;;;;;;;42.25;34.00;35.90;93.30;;;;;;5049981;28;8841;-63
2022/04/25 07:40:53;;;;;;;;;43.00;36.00;36.40;91.70;;;;;;5036046;28;8776;-64
2022/04/25 07:43:20;;;;;;;;;39.25;34.50;36.40;92.10;;;;;;5036756;28;8748;-63
2022/04/25 07:45:47;;;;;;;;;46.75;39.00;36.80;91.80;;;;;;5051714;28;9402;-64
2022/04/25 07:48:14;;;;;;;;;43.75;34.50;36.30;91.10;;;;;;5035261;28;8781;-62
2022/04/25 07:50:40;;;;;;;;;43.50;36.50;36.00;91.40;;;;;;5035854;28;8764;-62
2022/04/25 07:53:07;;;;;;;;;46.50;38.00;36.20;89.10;;;;;;5034423;28;8759;-63
2022/04/25 07:55:34;;;;;;;;;44.50;36.00;36.40;90.00;;;;;;4998698;28;8731;-62
2022/04/25 07:58:01;;;;;;;;;38.50;33.00;36.30;88.90;;;;;;5020925;28;8731;-62
2022/04/25 08:00:27;;;;;;;;;42.00;35.00;36.10;90.00;;;;;;5020513;28;8739;-62
2022/04/25 08:02:54;;;;;;;;;38.75;32.25;35.80;90.90;;;;;;5019187;28;8755;-62
2022/04/25 08:05:21;;;;;;;;;36.50;31.00;35.90;92.00;;;;;;5017732;28;8815;-61
2022/04/25 08:07:47;;;;;;;;;38.50;32.50;36.00;91.50;;;;;;5022813;28;8775;-62
2022/04/25 08:10:14;;;;;;;;;43.50;35.00;36.60;90.00;;;;;;5039460;28;8744;-65
2022/04/25 08:18:13;;;;;;;;;43.50;34.50;36.30;90.70;;;;;;5038466;28;8760;-64
2022/04/25 08:20:39;;;;;;;;;39.25;30.50;36.80;90.00;;;;;;5018595;28;8799;-64
2022/04/25 08:23:11;;;;;;;;;47.50;38.25;36.80;88.30;;;;;;5020907;28;8773;-63
2022/04/25 08:25:39;;;;;;;;;43.25;34.25;37.10;87.40;;;;;;5014611;28;8795;-65
2022/04/25 08:28:06;;;;;;;;;40.00;32.25;37.40;85.70;;;;;;5020082;28;8774;-65
2022/04/25 08:30:33;;;;;;;;;39.75;34.25;37.30;86.10;;;;;;5019914;28;8751;-65
2022/04/25 08:33:00;;;;;;;;;37.25;31.25;37.10;86.10;;;;;;5018812;28;9439;-66
2022/04/25 08:35:28;;;;;;;;;37.75;29.00;37.10;85.10;;;;;;5019664;28;8777;-62
2022/04/25 08:37:54;;;;;;;;;39.25;32.00;37.20;84.30;;;;;;5021813;28;8760;-64
2022/04/25 08:40:22;;;;;;;;;42.50;34.75;36.90;83.70;;;;;;5040067;28;8760;-64
2022/04/25 08:42:48;;;;;;;;;41.75;34.00;36.30;85.90;;;;;;5039293;28;9393;-64
2022/04/25 08:45:15;;;;;;;;;46.00;37.75;35.80;86.40;;;;;;5039769;28;8740;-65
2022/04/25 08:47:55;;;;;;;;;46.50;36.50;35.70;85.00;;;;;;5039252;28;8780;-65
2022/04/25 08:50:22;;;;;;;;;41.00;33.00;35.60;86.60;;;;;;5039041;28;8756;-64
2022/04/25 08:52:48;;;;;;;;;47.25;37.25;35.40;85.40;;;;;;5026258;28;8794;-64
2022/04/25 08:55:16;;;;;;;;;47.50;36.00;35.40;86.60;;;;;;5018953;28;8770;-65
2022/04/25 08:57:44;;;;;;;;;42.00;35.00;35.20;85.80;;;;;;5019161;28;8747;-64
2022/04/25 09:00:11;;;;;;;;;37.75;32.75;35.30;86.60;;;;;;5018437;28;8828;-65
2022/04/25 09:02:41;;;;;;;;;43.50;35.75;35.40;86.20;;;;;;5017819;28;8786;-64
2022/04/25 09:05:08;;;;;;;;;44.75;35.50;35.40;85.80;;;;;;5019623;28;9056;-65
2022/04/25 09:07:38;;;;;;;;;41.25;33.25;35.40;84.30;;;;;;5027922;28;8854;-64
2022/04/25 09:10:09;;;;;;;;;32.75;28.25;35.30;84.60;;;;;;5038371;28;8752;-65
2022/04/25 09:12:36;;;;;;;;;44.50;35.25;35.40;81.40;;;;;;5038629;28;8774;-64
2022/04/25 09:15:05;;;;;;;;;47.00;37.25;35.30;82.40;;;;;;5020546;28;8748;-65
2022/04/25 09:17:32;;;;;;;;;44.50;35.00;35.50;82.60;;;;;;5039003;28;8777;-64
2022/04/25 09:19:59;;;;;;;;;43.50;33.50;35.50;82.70;;;;;;5020822;28;9145;-64
2022/04/25 09:22:41;;;;;;;;;45.00;34.25;35.40;83.50;;;;;;5012341;28;8728;-64
2022/04/25 09:25:09;;;;;;;;;45.50;34.75;35.30;84.00;;;;;;5019849;28;8727;-64
2022/04/25 09:27:36;;;;;;;;;43.50;35.50;35.20;83.40;;;;;;5018801;28;8755;-64
2022/04/25 09:30:23;;;;;;;;;44.25;35.00;35.20;82.80;;;;;;5019117;28;8851;-64
2022/04/25 09:32:51;;;;;;;;;40.25;33.75;35.30;84.10;;;;;;5018054;28;8778;-64
2022/04/25 09:35:28;;;;;;;;;49.00;36.00;35.20;83.30;;;;;;5019087;28;8755;-62
2022/04/25 09:37:56;;;;;;;;;44.25;35.75;35.20;81.30;;;;;;5031250;28;8887;-65
2022/04/25 09:40:23;;;;;;;;;40.50;33.00;35.20;80.30;;;;;;5037823;28;8725;-64
2022/04/25 09:43:31;;;;;;;;;41.25;34.75;35.10;78.70;;;;;;5038976;28;8839;-64
2022/04/25 09:46:02;;;;;;;;;36.75;30.75;35.20;76.30;;;;;;4978033;28;8769;-64
2022/04/25 09:48:29;;;;;;;;;37.00;30.50;35.30;77.60;;;;;;5014012;28;8783;-64
2022/04/25 09:51:09;;;;;;;;;38.75;32.00;35.20;78.80;;;;;;5017651;28;9463;-64
2022/04/25 09:53:54;;;;;;;;;32.25;29.25;35.10;75.80;;;;;;4999508;28;8765;-64
2022/04/25 09:56:24;;;;;;;;;36.75;31.00;35.10;76.00;;;;;;4997962;28;8757;-64
2022/04/25 09:59:07;;;;;;;;;44.75;35.50;34.90;77.60;;;;;;4998899;28;8912;-64
2022/04/25 10:01:39;;;;;;;;;41.75;31.00;35.10;78.40;;;;;;5032505;28;8767;-64
2022/04/25 10:04:27;;;;;;;;;42.00;33.50;35.00;75.30;;;;;;5014358;28;8743;-65
2022/04/25 10:06:54;;;;;;;;;34.75;31.75;35.00;74.30;;;;;;5003293;28;8830;-64
2022/04/25 10:09:21;;;;;;;;;39.75;34.50;35.00;75.50;;;;;;5018248;28;9601;-63
2022/04/25 10:11:48;;;;;;;;;40.00;34.00;35.10;75.60;;;;;;5017072;28;8785;-64
2022/04/25 10:14:15;;;;;;;;;37.00;33.25;35.20;76.70;;;;;;5017011;28;8783;-65
2022/04/25 10:16:42;;;;;;;;;35.75;31.25;35.10;77.10;;;;;;5016907;28;8751;-64
2022/04/25 10:19:09;;;;;;;;;42.25;32.75;35.00;74.60;;;;;;5017665;28;8881;-64
2022/04/25 10:21:36;;;;;;;;;43.50;34.25;35.00;77.70;;;;;;5037675;28;9417;-64
2022/04/25 10:24:03;;;;;;;;;37.50;33.50;34.90;84.40;;;;;;5023337;28;8773;-64
2022/04/25 10:26:30;;;;;;;;;41.50;32.50;34.90;83.90;;;;;;5025119;28;8802;-64
2022/04/25 10:29:10;;;;;;;;;41.25;34.00;34.80;85.40;;;;;;5020956;28;8760;-64
2022/04/25 10:31:41;;;;;;;;;44.00;36.00;34.90;83.50;;;;;;5018076;28;8764;-64
2022/04/25 10:34:08;;;;;;;;;43.25;35.75;34.90;85.80;;;;;;5018663;28;8839;-64
2022/04/25 10:36:37;;;;;;;;;47.75;38.00;34.90;88.40;;;;;;5015352;28;8996;-64
2022/04/25 10:39:13;;;;;;;;;47.50;37.00;34.80;89.60;;;;;;4998550;28;8759;-64
2022/04/25 10:44:31;;;;;;;;;44.75;36.50;34.80;90.10;;;;;;5017835;28;9386;-64
2022/04/25 10:47:07;;;;;;;;;45.25;36.25;34.80;90.30;;;;;;5017776;28;8783;-64
2022/04/25 10:49:34;;;;;;;;;45.50;36.75;34.70;89.40;;;;;;5017968;28;8772;-65
2022/04/25 10:52:02;;;;;;;;;40.75;33.25;34.70;91.00;;;;;;5023429;28;8757;-64
2022/04/25 10:54:51;;;;;;;;;43.00;34.00;34.60;90.30;;;;;;5019766;28;8918;-64
2022/04/25 10:57:18;;;;;;;;;47.75;38.00;34.60;90.60;;;;;;5021057;28;8760;-63
2022/04/25 10:59:45;;;;;;;;;43.00;37.50;34.60;90.80;;;;;;5017419;28;8838;-64
2022/04/25 11:02:28;;;;;;;;;46.00;37.50;34.60;90.30;;;;;;5035841;28;8807;-64
2022/04/25 11:05:19;;;;;;;;;47.25;39.00;34.40;90.20;;;;;;5032560;28;9082;-64
2022/04/25 11:07:45;;;;;;;;;51.00;36.00;34.50;90.80;;;;;;5020494;28;8800;-64
2022/04/25 11:10:41;;;;;;;;;47.25;38.50;34.50;90.50;;;;;;5037710;28;8734;-64
2022/04/25 11:13:08;;;;;;;;;43.25;36.50;34.40;91.10;;;;;;5037585;28;8797;-65
2022/04/25 11:15:42;;;;;;;;;40.25;34.50;34.30;91.30;;;;;;5036941;28;8762;-64
2022/04/25 11:18:33;;;;;;;;;46.25;37.25;34.20;91.70;;;;;;5037303;28;8808;-65
2022/04/25 11:21:16;;;;;;;;;45.00;37.50;34.20;92.00;;;;;;5035287;28;8891;-64
2022/04/25 11:23:46;;;;;;;;;45.50;38.25;34.10;92.40;;;;;;5032425;28;8766;-64
2022/04/25 11:26:25;;;;;;;;;45.75;38.00;34.10;93.50;;;;;;5017367;28;8763;-65
2022/04/25 11:29:01;;;;;;;;;49.00;38.25;34.00;92.50;;;;;;5017613;28;8771;-65
2022/04/25 11:31:28;;;;;;;;;43.75;36.50;33.90;93.60;;;;;;5016091;28;8869;-64
2022/04/25 11:33:57;;;;;;;;;50.75;41.50;34.00;92.70;;;;;;5018121;28;8861;-65
2022/04/25 11:36:24;;;;;;;;;51.00;39.00;34.00;91.00;;;;;;5031526;28;9026;-64
2022/04/25 11:41:38;;;;;;;;;46.50;39.00;34.00;90.70;;;;;;5036430;28;8784;-64
2022/04/25 11:44:05;;;;;;;;;46.50;37.75;33.80;91.40;;;;;;5036637;28;8974;-65
2022/04/25 11:46:32;;;;;;;;;47.50;38.50;33.70;91.60;;;;;;5036314;28;8791;-64
2022/04/25 11:48:59;;;;;;;;;50.25;37.75;33.80;91.30;;;;;;5037585;28;8794;-65
2022/04/25 11:51:32;;;;;;;;;48.50;39.25;33.80;90.40;;;;;;5018805;28;8840;-64
2022/04/25 11:54:04;;;;;;;;;51.75;42.75;33.70;95.20;;;;;;5036457;28;8816;-65
2022/04/25 11:56:35;;;;;;;;;51.50;41.75;33.60;96.40;;;;;;5035093;28;9001;-64
2022/04/25 11:59:12;;;;;;;;;55.25;43.75;33.40;98.30;;;;;;5036353;28;8862;-64
2022/04/25 12:01:39;;;;;;;;;53.50;42.00;33.30;97.60;;;;;;5018281;28;8846;-64
2022/04/25 12:04:18;;;;;;;;;57.50;44.00;33.30;95.50;;;;;;5035490;28;8779;-64
2022/04/25 12:06:59;;;;;;;;;54.00;43.25;33.40;93.90;;;;;;5036281;28;8915;-65
2022/04/25 12:15:34;;;;;;;;;62.00;46.60;33.30;92.50;;;;;;5036479;28;8795;-65
2022/04/25 12:18:22;;;;;;;;;62.80;48.40;33.30;92.60;;;;;;5035584;28;8764;-65
2022/04/25 12:21:05;;;;;;;;;58.00;46.00;33.30;92.50;;;;;;5034773;28;8772;-65
2022/04/25 12:23:36;;;;;;;;;59.80;46.00;33.40;92.40;;;;;;5018903;28;8792;-65
2022/04/25 12:26:05;;;;;;;;;62.00;48.20;33.50;92.60;;;;;;5008570;28;8760;-65
2022/04/25 12:28:34;;;;;;;;;62.80;50.20;33.30;93.00;;;;;;5034827;28;8887;-64
2022/04/25 12:31:11;;;;;;;;;61.80;47.20;33.20;96.20;;;;;;5036480;28;8772;-65
2022/04/25 12:33:44;;;;;;;;;62.20;47.00;33.10;95.50;;;;;;5035064;28;9445;-65
2022/04/25 12:36:24;;;;;;;;;66.20;48.60;33.10;96.40;;;;;;5028442;28;8833;-65
2022/04/25 12:38:51;;;;;;;;;62.60;49.60;32.90;99.00;;;;;;5016706;28;9187;-64
2022/04/25 12:41:32;;;;;;;;;60.80;47.60;33.00;96.20;;;;;;5016469;28;8885;-62
2022/04/25 12:44:10;;;;;;;;;63.20;47.00;33.10;96.90;;;;;;5020049;28;8873;-64
2022/04/25 12:46:41;;;;;;;;;57.60;46.00;33.10;97.70;;;;;;5018746;28;9622;-64
2022/04/25 12:49:08;;;;;;;;;43.40;33.00;33.00;97.50;;;;;;5020909;28;8750;-65
2022/04/25 12:51:36;;;;;;;;;63.20;48.80;32.90;98.70;;;;;;5021373;28;8794;-64
2022/04/25 12:54:05;;;;;;;;;67.60;51.00;32.90;97.70;;;;;;5028564;28;9313;-64
2022/04/25 12:56:33;;;;;;;;;69.40;53.20;32.90;98.20;;;;;;5039264;28;8761;-64
2022/04/25 12:59:00;;;;;;;;;64.20;51.00;32.60;98.90;;;;;;5039270;28;8780;-64
2022/04/25 13:01:30;;;;;;;;;60.20;48.20;32.50;98.40;;;;;;5039033;28;8774;-64
2022/04/25 13:04:13;;;;;;;;;63.00;49.20;32.70;97.60;;;;;;5039706;28;8744;-64
2022/04/25 13:06:43;;;;;;;;;63.40;49.40;32.70;98.70;;;;;;5037827;28;8800;-64
2022/04/25 13:09:10;;;;;;;;;63.00;48.40;32.70;98.20;;;;;;5039361;28;8791;-64
2022/04/25 13:11:38;;;;;;;;;62.00;48.40;32.70;98.90;;;;;;5037864;28;8823;-64
2022/04/25 13:14:05;;;;;;;;;57.20;46.80;32.70;99.10;;;;;;5038303;28;9248;-64
2022/04/25 13:16:32;;;;;;;;;61.40;47.60;32.60;98.80;;;;;;5037699;28;8768;-64
2022/04/25 13:18:58;;;;;;;;;63.80;50.40;32.60;98.80;;;;;;5040430;28;8741;-64
2022/04/25 13:21:26;;;;;;;;;60.80;47.00;32.60;99.20;;;;;;5056142;28;8779;-64
2022/04/25 13:23:53;;;;;;;;;63.80;49.00;32.70;99.20;;;;;;5059133;28;8766;-64